Time,TemperatureF,DewpointF,PressureIn,WindDirection,WindDirectionDegrees,WindSpeedMPH,WindSpeedGustMPH,Humidity,HourlyPrecipIn,Conditions,Clouds,dailyrainin,SoftwareType,DateUTC
2013-04-12 00:17:00,37.0,33.0,30.07,SSE,157,4.0,5.0,87,0.00,,,0.11,TxWx,2013-04-12 04:17:00,
2013-04-12 00:25:00,37.0,33.0,30.07,South,180,3.0,3.0,87,0.00,,,0.11,TxWx,2013-04-12 04:25:00,
2013-04-12 00:32:00,37.0,33.0,30.06,SSE,157,6.0,6.0,86,0.00,,,0.11,TxWx,2013-04-12 04:32:00,
2013-04-12 00:37:00,37.0,33.0,30.06,WSW,247,2.0,3.0,86,0.00,,,0.11,TxWx,2013-04-12 04:37:00,
2013-04-12 00:42:00,37.0,33.0,30.06,SSE,157,4.0,6.0,86,0.00,,,0.11,TxWx,2013-04-12 04:42:00,
2013-04-12 00:48:00,37.0,33.0,30.06,South,180,5.0,5.0,86,0.00,,,0.11,TxWx,2013-04-12 04:48:00,
2013-04-12 00:53:00,37.0,33.0,30.06,SSE,157,4.0,6.0,86,0.00,,,0.11,TxWx,2013-04-12 04:53:00,
2013-04-12 00:58:00,37.0,33.0,30.06,SSE,157,4.0,6.0,86,0.00,,,0.11,TxWx,2013-04-12 04:58:00,
2013-04-12 01:04:00,37.0,33.0,30.06,SE,135,3.0,5.0,85,0.00,,,0.00,TxWx,2013-04-12 05:04:00,
2013-04-12 01:10:00,37.0,33.0,30.06,SSE,157,5.0,6.0,85,0.00,,,0.00,TxWx,2013-04-12 05:10:00,
2013-04-12 01:16:00,37.0,33.0,30.06,East,90,4.0,5.0,85,0.00,,,0.00,TxWx,2013-04-12 05:16:00,
2013-04-12 01:21:00,37.0,33.0,30.06,SE,135,6.0,8.0,85,0.00,,,0.00,TxWx,2013-04-12 05:21:00,
2013-04-12 01:26:00,37.0,33.0,30.06,SSE,157,6.0,6.0,85,0.00,,,0.00,TxWx,2013-04-12 05:26:00,
2013-04-12 01:31:00,37.0,33.0,30.06,SW,225,8.0,9.0,85,0.00,,,0.00,TxWx,2013-04-12 05:31:00,
2013-04-12 01:36:00,37.0,33.0,30.05,SSE,157,6.0,6.0,85,0.00,,,0.00,TxWx,2013-04-12 05:36:00,
2013-04-12 01:42:00,37.0,33.0,30.06,SSE,157,5.0,5.0,85,0.00,,,0.00,TxWx,2013-04-12 05:42:00,
2013-04-12 01:47:00,37.0,33.0,30.06,SSE,157,5.0,6.0,85,0.00,,,0.00,TxWx,2013-04-12 05:47:00,
2013-04-12 01:52:00,37.0,33.0,30.06,SSE,157,6.0,6.0,85,0.00,,,0.00,TxWx,2013-04-12 05:52:00,
2013-04-12 01:57:00,37.0,33.0,30.05,South,180,6.0,6.0,85,0.00,,,0.00,TxWx,2013-04-12 05:57:00,
2013-04-12 02:02:00,37.0,33.0,30.04,SSW,202,3.0,5.0,85,0.00,,,0.00,TxWx,2013-04-12 06:02:00,
2013-04-12 02:08:00,37.0,33.0,30.04,SE,135,5.0,6.0,85,0.00,,,0.00,TxWx,2013-04-12 06:08:00,
2013-04-12 02:13:00,37.0,33.0,30.04,SSE,157,3.0,3.0,86,0.00,,,0.00,TxWx,2013-04-12 06:13:00,
2013-04-12 02:18:00,37.0,33.0,30.04,SSE,157,2.0,3.0,86,0.00,,,0.00,TxWx,2013-04-12 06:18:00,
2013-04-12 02:24:00,37.0,33.0,30.04,South,180,3.0,3.0,86,0.00,,,0.00,TxWx,2013-04-12 06:24:00,
2013-04-12 02:29:00,37.0,33.0,30.04,SSE,157,2.0,3.0,86,0.00,,,0.00,TxWx,2013-04-12 06:29:00,
2013-04-12 02:34:00,37.0,33.0,30.04,SE,135,4.0,4.0,86,0.00,,,0.00,TxWx,2013-04-12 06:34:00,
2013-04-12 02:39:00,37.0,33.0,30.04,SSE,157,4.0,4.0,86,0.00,,,0.00,TxWx,2013-04-12 06:39:00,
2013-04-12 02:44:00,37.0,33.0,30.04,ESE,112,4.0,5.0,86,0.00,,,0.00,TxWx,2013-04-12 06:44:00,
2013-04-12 02:49:00,37.0,33.0,30.04,SSE,157,3.0,3.0,87,0.00,,,0.00,TxWx,2013-04-12 06:49:00,
2013-04-12 02:55:00,37.0,33.0,30.03,South,180,4.0,4.0,87,0.00,,,0.00,TxWx,2013-04-12 06:55:00,
2013-04-12 03:00:00,37.0,33.0,30.03,South,180,3.0,4.0,87,0.00,,,0.00,TxWx,2013-04-12 07:00:00,
2013-04-12 03:05:00,37.0,33.0,30.04,SSE,157,2.0,3.0,87,0.00,,,0.00,TxWx,2013-04-12 07:05:00,
2013-04-12 03:10:00,37.0,34.0,30.04,SSE,157,3.0,3.0,88,0.00,,,0.00,TxWx,2013-04-12 07:10:00,
2013-04-12 03:15:00,37.0,34.0,30.03,SSE,157,3.0,3.0,88,0.00,,,0.00,TxWx,2013-04-12 07:15:00,
2013-04-12 03:20:00,37.0,34.0,30.03,SSE,157,3.0,3.0,88,0.00,,,0.00,TxWx,2013-04-12 07:20:00,
2013-04-12 03:25:00,37.0,34.0,30.04,ESE,112,6.0,6.0,88,0.00,,,0.00,TxWx,2013-04-12 07:25:00,
2013-04-12 03:30:00,37.0,34.0,30.04,SE,135,5.0,5.0,88,0.00,,,0.00,TxWx,2013-04-12 07:30:00,
2013-04-12 03:36:00,37.0,34.0,30.03,ESE,112,1.0,2.0,89,0.00,,,0.00,TxWx,2013-04-12 07:36:00,
2013-04-12 03:41:00,37.0,34.0,30.02,SSE,157,5.0,6.0,89,0.00,,,0.00,TxWx,2013-04-12 07:41:00,
2013-04-12 03:46:00,37.0,34.0,30.03,SE,135,3.0,4.0,89,0.00,,,0.00,TxWx,2013-04-12 07:46:00,
2013-04-12 03:51:00,37.0,34.0,30.02,ESE,112,3.0,3.0,89,0.00,,,0.00,TxWx,2013-04-12 07:51:00,
2013-04-12 03:56:00,37.0,34.0,30.02,SE,135,3.0,3.0,89,0.00,,,0.00,TxWx,2013-04-12 07:56:00,
2013-04-12 04:01:00,37.0,34.0,30.02,ESE,112,3.0,3.0,89,0.00,,,0.00,TxWx,2013-04-12 08:01:00,
2013-04-12 04:06:00,37.0,34.0,30.02,SE,135,3.0,3.0,90,0.00,,,0.00,TxWx,2013-04-12 08:06:00,
2013-04-12 04:12:00,37.0,34.0,30.02,SSE,157,3.0,4.0,90,0.00,,,0.00,TxWx,2013-04-12 08:12:00,
2013-04-12 04:17:00,37.0,34.0,30.02,ESE,112,4.0,5.0,90,0.00,,,0.00,TxWx,2013-04-12 08:17:00,
2013-04-12 04:22:00,37.0,34.0,30.01,SE,135,3.0,5.0,90,0.00,,,0.00,TxWx,2013-04-12 08:22:00,
2013-04-12 04:27:00,37.0,34.0,30.01,SE,135,2.0,3.0,90,0.00,,,0.00,TxWx,2013-04-12 08:27:00,
2013-04-12 04:32:00,37.0,34.0,30.01,SE,135,4.0,4.0,90,0.00,,,0.00,TxWx,2013-04-12 08:32:00,
2013-04-12 04:38:00,37.0,34.0,30.01,ESE,112,3.0,3.0,90,0.00,,,0.00,TxWx,2013-04-12 08:38:00,
2013-04-12 04:43:00,37.0,34.0,30.01,ESE,112,2.0,2.0,91,0.00,,,0.00,TxWx,2013-04-12 08:43:00,
2013-04-12 04:48:00,37.0,34.0,30.01,SSE,157,3.0,3.0,91,0.00,,,0.00,TxWx,2013-04-12 08:48:00,
2013-04-12 04:53:00,37.0,34.0,30.01,ESE,112,4.0,5.0,91,0.00,,,0.00,TxWx,2013-04-12 08:53:00,
2013-04-12 04:58:00,37.0,35.0,30.00,SE,135,3.0,4.0,91,0.00,,,0.00,TxWx,2013-04-12 08:58:00,
2013-04-12 05:03:00,37.0,35.0,30.00,SE,135,3.0,3.0,91,0.00,,,0.01,TxWx,2013-04-12 09:03:00,
2013-04-12 05:08:00,37.0,35.0,29.99,South,180,4.0,4.0,91,0.00,,,0.01,TxWx,2013-04-12 09:08:00,
2013-04-12 05:14:00,37.0,35.0,30.00,ESE,112,3.0,3.0,91,0.60,,,0.01,TxWx,2013-04-12 09:14:00,
2013-04-12 05:19:00,38.0,36.0,30.00,East,90,1.0,2.0,91,0.60,,,0.01,TxWx,2013-04-12 09:19:00,
2013-04-12 05:24:00,38.0,36.0,30.00,ESE,112,1.0,2.0,91,0.00,,,0.01,TxWx,2013-04-12 09:24:00,
2013-04-12 05:25:00,44.0,42.0,29.77,ENE,67,1.0,1.0,94,0.00,,,0.49,TxWx,2013-04-12 09:25:00,
2013-04-12 05:26:00,44.0,42.0,29.77,ENE,67,1.0,1.0,94,0.00,,,0.49,TxWx,2013-04-12 09:26:00,
2013-04-12 05:27:00,44.0,42.0,29.77,East,90,1.0,2.0,94,0.00,,,0.49,TxWx,2013-04-12 09:27:00,
2013-04-12 05:28:00,44.0,42.0,29.77,East,90,1.0,1.0,94,0.00,,,0.49,TxWx,2013-04-12 09:28:00,
2013-04-12 05:29:00,44.0,42.0,29.77,ESE,112,1.0,1.0,94,0.00,,,0.49,TxWx,2013-04-12 09:29:00,
2013-04-12 05:30:00,38.0,36.0,30.00,SE,135,3.0,3.0,92,0.00,,,0.01,TxWx,2013-04-12 09:30:00,
2013-04-12 05:31:00,44.0,42.0,29.77,SE,135,1.0,1.0,94,0.00,,,0.49,TxWx,2013-04-12 09:31:00,
2013-04-12 05:32:00,44.0,42.0,29.77,SE,135,1.0,2.0,94,0.00,,,0.49,TxWx,2013-04-12 09:32:00,
2013-04-12 05:33:00,44.0,42.0,29.77,SE,135,1.0,2.0,94,0.00,,,0.49,TxWx,2013-04-12 09:33:00,
2013-04-12 05:34:00,43.0,41.0,29.77,SE,135,1.0,2.0,94,0.00,,,0.49,TxWx,2013-04-12 09:34:00,
2013-04-12 05:35:00,38.0,36.0,29.99,SE,135,3.0,3.0,92,0.00,,,0.01,TxWx,2013-04-12 09:35:00,
2013-04-12 05:36:00,43.0,41.0,29.76,SE,135,1.0,1.0,94,0.00,,,0.49,TxWx,2013-04-12 09:36:00,
2013-04-12 05:37:00,44.0,42.0,29.76,SW,225,1.0,1.0,94,0.00,,,0.49,TxWx,2013-04-12 09:37:00,
2013-04-12 05:39:00,43.0,41.0,29.76,SE,135,1.0,2.0,94,0.00,,,0.49,TxWx,2013-04-12 09:39:00,
2013-04-12 05:40:00,38.0,36.0,30.00,SE,135,3.0,3.0,92,0.00,,,0.01,TxWx,2013-04-12 09:40:00,
2013-04-12 05:41:00,43.0,41.0,29.76,ESE,112,2.0,2.0,94,0.00,,,0.49,TxWx,2013-04-12 09:41:00,
2013-04-12 05:43:00,43.0,41.0,29.76,SE,135,1.0,1.0,94,0.00,,,0.49,TxWx,2013-04-12 09:43:00,
2013-04-12 05:44:00,43.0,41.0,29.76,SE,135,1.0,1.0,94,0.00,,,0.49,TxWx,2013-04-12 09:44:00,
2013-04-12 05:45:00,38.0,36.0,29.99,SE,135,5.0,6.0,92,0.00,,,0.01,TxWx,2013-04-12 09:45:00,
2013-04-12 05:46:00,43.0,41.0,29.76,East,90,1.0,1.0,94,0.00,,,0.49,TxWx,2013-04-12 09:46:00,
2013-04-12 05:47:00,43.0,41.0,29.76,ENE,67,1.0,1.0,94,0.00,,,0.49,TxWx,2013-04-12 09:47:00,
2013-04-12 05:48:00,44.0,42.0,29.76,ENE,67,1.0,1.0,94,0.00,,,0.49,TxWx,2013-04-12 09:48:00,
2013-04-12 05:49:00,44.0,43.0,29.76,NE,45,1.0,1.0,95,0.00,,,0.49,TxWx,2013-04-12 09:49:00,
2013-04-12 05:50:00,44.0,43.0,29.76,NE,45,1.0,1.0,95,0.00,,,0.49,TxWx,2013-04-12 09:50:00,
2013-04-12 05:51:00,38.0,36.0,30.00,SE,135,5.0,5.0,92,0.00,,,0.01,TxWx,2013-04-12 09:51:00,
2013-04-12 05:52:00,44.0,43.0,29.76,ESE,112,1.0,1.0,95,0.00,,,0.49,TxWx,2013-04-12 09:52:00,
2013-04-12 05:53:00,44.0,43.0,29.75,ESE,112,0.0,1.0,95,0.00,,,0.49,TxWx,2013-04-12 09:53:00,
2013-04-12 05:54:00,44.0,43.0,29.75,SE,135,1.0,1.0,95,0.00,,,0.49,TxWx,2013-04-12 09:54:00,
2013-04-12 05:55:00,44.0,43.0,29.75,SSE,157,0.0,1.0,95,0.00,,,0.49,TxWx,2013-04-12 09:55:00,
2013-04-12 05:56:00,38.0,36.0,30.00,SE,135,1.0,2.0,92,0.00,,,0.01,TxWx,2013-04-12 09:56:00,
2013-04-12 05:57:00,44.0,43.0,29.75,SE,135,1.0,1.0,95,0.00,,,0.49,TxWx,2013-04-12 09:57:00,
2013-04-12 05:58:00,44.0,43.0,29.75,SE,135,1.0,1.0,95,0.00,,,0.49,TxWx,2013-04-12 09:58:00,
2013-04-12 05:59:00,44.0,43.0,29.75,SSE,157,1.0,1.0,95,0.00,,,0.49,TxWx,2013-04-12 09:59:00,
2013-04-12 06:00:00,44.0,42.0,29.75,SE,135,1.0,1.0,95,0.00,,,0.49,TxWx,2013-04-12 10:00:00,
2013-04-12 06:01:00,38.0,36.0,30.01,ESE,112,1.0,1.0,92,0.00,,,0.01,TxWx,2013-04-12 10:01:00,
2013-04-12 06:03:00,44.0,43.0,29.75,South,180,1.0,1.0,95,0.00,,,0.49,TxWx,2013-04-12 10:03:00,
2013-04-12 06:06:00,38.0,36.0,30.00,South,180,1.0,1.0,92,0.00,,,0.01,TxWx,2013-04-12 10:06:00,
2013-04-12 06:07:00,44.0,43.0,29.74,NNE,22,1.0,1.0,95,0.00,,,0.49,TxWx,2013-04-12 10:07:00,
2013-04-12 06:08:00,44.0,43.0,29.74,NNE,22,0.0,1.0,95,0.00,,,0.49,TxWx,2013-04-12 10:08:00,
2013-04-12 06:09:00,44.0,43.0,29.74,North,0,0.0,1.0,95,0.00,,,0.49,TxWx,2013-04-12 10:09:00,
2013-04-12 06:10:00,44.0,43.0,29.74,ENE,67,0.0,1.0,95,0.00,,,0.49,TxWx,2013-04-12 10:10:00,
2013-04-12 06:11:00,38.0,36.0,30.00,South,180,1.0,1.0,92,0.00,,,0.01,TxWx,2013-04-12 10:11:00,
2013-04-12 06:12:00,44.0,43.0,29.75,ENE,67,2.0,3.0,95,0.00,,,0.49,TxWx,2013-04-12 10:12:00,
2013-04-12 06:13:00,44.0,43.0,29.74,ENE,67,2.0,2.0,95,0.00,,,0.49,TxWx,2013-04-12 10:13:00,
2013-04-12 06:14:00,44.0,43.0,29.74,ENE,67,1.0,1.0,95,0.00,,,0.49,TxWx,2013-04-12 10:14:00,
2013-04-12 06:15:00,44.0,43.0,29.74,NE,45,1.0,2.0,95,0.00,,,0.49,TxWx,2013-04-12 10:15:00,
2013-04-12 06:16:00,44.0,43.0,29.74,ENE,67,2.0,2.0,95,0.00,,,0.49,TxWx,2013-04-12 10:16:00,
2013-04-12 06:17:00,38.0,36.0,29.98,SSE,157,4.0,4.0,92,0.00,,,0.02,TxWx,2013-04-12 10:17:00,
2013-04-12 06:18:00,44.0,43.0,29.75,ENE,67,2.0,3.0,95,0.00,,,0.49,TxWx,2013-04-12 10:18:00,
2013-04-12 06:19:00,44.0,42.0,29.74,ENE,67,2.0,2.0,94,0.00,,,0.49,TxWx,2013-04-12 10:19:00,
2013-04-12 06:22:00,38.0,36.0,29.97,SE,135,4.0,5.0,92,0.60,,,0.02,TxWx,2013-04-12 10:22:00,
2013-04-12 06:27:00,38.0,36.0,29.98,SE,135,2.0,3.0,92,0.60,,,0.02,TxWx,2013-04-12 10:27:00,
2013-04-12 06:33:00,38.0,36.0,29.97,SE,135,1.0,1.0,93,0.00,,,0.02,TxWx,2013-04-12 10:33:00,
2013-04-12 06:38:00,38.0,36.0,29.96,South,180,1.0,1.0,93,0.00,,,0.02,TxWx,2013-04-12 10:38:00,
2013-04-12 06:43:00,38.0,36.0,29.96,SW,225,1.0,1.0,93,0.00,,,0.02,TxWx,2013-04-12 10:43:00,
2013-04-12 06:48:00,38.0,36.0,29.96,ESE,112,2.0,3.0,93,0.00,,,0.02,TxWx,2013-04-12 10:48:00,
2013-04-12 06:53:00,38.0,36.0,29.97,East,90,1.0,2.0,93,0.00,,,0.02,TxWx,2013-04-12 10:53:00,
2013-04-12 06:59:00,38.0,36.0,29.96,East,90,4.0,5.0,93,0.00,,,0.02,TxWx,2013-04-12 10:59:00,
2013-04-12 07:04:00,38.0,36.0,29.96,East,90,4.0,4.0,93,0.00,,,0.02,TxWx,2013-04-12 11:04:00,
2013-04-12 07:09:00,38.0,36.0,29.96,SE,135,1.0,1.0,93,0.00,,,0.02,TxWx,2013-04-12 11:09:00,
2013-04-12 07:15:00,38.0,36.0,29.95,SE,135,2.0,2.0,93,0.00,,,0.02,TxWx,2013-04-12 11:15:00,
2013-04-12 07:20:00,39.0,37.0,29.95,SSE,157,2.0,2.0,93,0.00,,,0.02,TxWx,2013-04-12 11:20:00,
2013-04-12 07:25:00,39.0,37.0,29.95,SE,135,3.0,3.0,93,0.00,,,0.02,TxWx,2013-04-12 11:25:00,
2013-04-12 07:30:00,39.0,37.0,29.95,ESE,112,1.0,2.0,93,0.00,,,0.02,TxWx,2013-04-12 11:30:00,
2013-04-12 07:36:00,39.0,37.0,29.95,NE,45,2.0,3.0,93,0.00,,,0.02,TxWx,2013-04-12 11:36:00,
2013-04-12 07:41:00,39.0,37.0,29.95,NNW,337,1.0,1.0,93,0.00,,,0.02,TxWx,2013-04-12 11:41:00,
2013-04-12 07:47:00,39.0,37.0,29.95,WNW,292,1.0,1.0,93,0.00,,,0.02,TxWx,2013-04-12 11:47:00,
2013-04-12 07:52:00,39.0,37.0,29.94,NNW,337,1.0,1.0,93,0.00,,,0.02,TxWx,2013-04-12 11:52:00,
2013-04-12 07:57:00,39.0,37.0,29.94,NNW,337,1.0,1.0,93,0.00,,,0.02,TxWx,2013-04-12 11:57:00,
2013-04-12 08:02:00,39.0,37.0,29.95,NNE,22,2.0,2.0,93,0.00,,,0.02,TxWx,2013-04-12 12:02:00,
2013-04-12 08:07:00,39.0,37.0,29.94,NNW,337,1.0,1.0,93,0.00,,,0.02,TxWx,2013-04-12 12:07:00,
2013-04-12 08:13:00,39.0,37.0,29.94,NE,45,0.0,0.0,93,0.00,,,0.02,TxWx,2013-04-12 12:13:00,
2013-04-12 08:18:00,39.0,37.0,29.94,NW,315,1.0,1.0,93,0.00,,,0.02,TxWx,2013-04-12 12:18:00,
2013-04-12 08:23:00,40.0,38.0,29.93,WNW,292,1.0,1.0,93,0.00,,,0.02,TxWx,2013-04-12 12:23:00,
2013-04-12 08:28:00,40.0,38.0,29.93,NNE,22,1.0,1.0,93,0.00,,,0.02,TxWx,2013-04-12 12:28:00,
2013-04-12 08:33:00,40.0,38.0,29.93,NE,45,1.0,1.0,94,0.00,,,0.02,TxWx,2013-04-12 12:33:00,
2013-04-12 08:38:00,40.0,38.0,29.92,SE,135,1.0,1.0,94,0.00,,,0.02,TxWx,2013-04-12 12:38:00,
2013-04-12 08:44:00,40.0,38.0,29.92,ESE,112,1.0,1.0,94,0.00,,,0.02,TxWx,2013-04-12 12:44:00,
2013-04-12 08:49:00,40.0,38.0,29.92,West,270,1.0,1.0,94,0.00,,,0.02,TxWx,2013-04-12 12:49:00,
2013-04-12 08:54:00,40.0,38.0,29.91,SSW,202,1.0,1.0,94,0.00,,,0.02,TxWx,2013-04-12 12:54:00,
2013-04-12 08:59:00,41.0,39.0,29.91,NE,45,1.0,1.0,94,0.00,,,0.02,TxWx,2013-04-12 12:59:00,
2013-04-12 09:04:00,41.0,39.0,29.91,SSE,157,1.0,1.0,94,0.00,,,0.02,TxWx,2013-04-12 13:04:00,
2013-04-12 09:09:00,41.0,39.0,29.90,SW,225,4.0,5.0,94,0.00,,,0.02,TxWx,2013-04-12 13:09:00,
2013-04-12 09:14:00,41.0,39.0,29.90,SSW,202,1.0,1.0,94,0.00,,,0.02,TxWx,2013-04-12 13:14:00,
2013-04-12 09:19:00,41.0,39.0,29.90,North,0,1.0,2.0,94,0.00,,,0.02,TxWx,2013-04-12 13:19:00,
2013-04-12 09:25:00,41.0,39.0,29.89,SSE,157,1.0,1.0,94,0.00,,,0.03,TxWx,2013-04-12 13:25:00,
2013-04-12 09:30:00,41.0,39.0,29.89,WNW,292,1.0,1.0,94,0.60,,,0.04,TxWx,2013-04-12 13:30:00,
2013-04-12 09:35:00,41.0,39.0,29.89,West,270,6.0,8.0,94,0.60,,,0.04,TxWx,2013-04-12 13:35:00,
2013-04-12 09:41:00,41.0,39.0,29.89,WNW,292,1.0,1.0,94,0.60,,,0.05,TxWx,2013-04-12 13:41:00,
2013-04-12 09:46:00,41.0,39.0,29.89,WNW,292,2.0,2.0,94,0.60,,,0.06,TxWx,2013-04-12 13:46:00,
2013-04-12 09:51:00,41.0,39.0,29.88,East,90,0.0,1.0,94,0.60,,,0.09,TxWx,2013-04-12 13:51:00,
2013-04-12 09:56:00,41.0,39.0,29.89,NNW,337,1.0,3.0,94,0.60,,,0.11,TxWx,2013-04-12 13:56:00,
2013-04-12 10:02:00,41.0,39.0,29.89,North,0,2.0,2.0,94,0.60,,,0.12,TxWx,2013-04-12 14:02:00,
2013-04-12 10:07:00,41.0,39.0,29.89,ENE,67,0.0,1.0,94,0.60,,,0.14,TxWx,2013-04-12 14:07:00,
2013-04-12 10:12:00,41.0,39.0,29.90,North,0,2.0,2.0,94,0.60,,,0.14,TxWx,2013-04-12 14:12:00,
2013-04-12 10:17:00,41.0,39.0,29.89,NNW,337,2.0,2.0,94,0.60,,,0.16,TxWx,2013-04-12 14:17:00,
2013-04-12 10:23:00,41.0,39.0,29.90,NW,315,1.0,1.0,94,0.60,,,0.17,TxWx,2013-04-12 14:23:00,
2013-04-12 10:28:00,42.0,40.0,29.90,NE,45,5.0,5.0,94,0.60,,,0.19,TxWx,2013-04-12 14:28:00,
2013-04-12 10:33:00,42.0,40.0,29.89,NNE,22,1.0,1.0,94,0.60,,,0.21,TxWx,2013-04-12 14:33:00,
2013-04-12 10:38:00,41.0,39.0,29.87,SSW,202,3.0,3.0,94,0.60,,,0.24,TxWx,2013-04-12 14:38:00,
2013-04-12 10:44:00,41.0,40.0,29.89,ESE,112,1.0,1.0,94,0.60,,,0.27,TxWx,2013-04-12 14:44:00,
2013-04-12 10:49:00,42.0,40.0,29.88,ENE,67,3.0,3.0,94,0.60,,,0.28,TxWx,2013-04-12 14:49:00,
2013-04-12 10:54:00,42.0,40.0,29.89,NE,45,3.0,3.0,94,0.60,,,0.30,TxWx,2013-04-12 14:54:00,
2013-04-12 10:59:00,42.0,40.0,29.90,North,0,5.0,5.0,94,0.60,,,0.33,TxWx,2013-04-12 14:59:00,
2013-04-12 11:05:00,42.0,40.0,29.91,North,0,3.0,3.0,94,0.60,,,0.35,TxWx,2013-04-12 15:05:00,
2013-04-12 11:10:00,42.0,40.0,29.89,NNE,22,3.0,3.0,94,0.60,,,0.37,TxWx,2013-04-12 15:10:00,
2013-04-12 11:15:00,42.0,40.0,29.89,West,270,1.0,1.0,94,0.60,,,0.38,TxWx,2013-04-12 15:15:00,
2013-04-12 11:20:00,42.0,40.0,29.87,NNE,22,2.0,2.0,94,0.60,,,0.39,TxWx,2013-04-12 15:20:00,
2013-04-12 11:25:00,42.0,40.0,29.87,NNW,337,3.0,4.0,94,0.60,,,0.40,TxWx,2013-04-12 15:25:00,
2013-04-12 11:30:00,42.0,40.0,29.86,NNE,22,3.0,3.0,94,0.60,,,0.40,TxWx,2013-04-12 15:30:00,
2013-04-12 11:36:00,42.0,40.0,29.86,NNE,22,4.0,5.0,94,0.60,,,0.41,TxWx,2013-04-12 15:36:00,
2013-04-12 11:41:00,42.0,40.0,29.87,NNW,337,3.0,3.0,94,0.60,,,0.41,TxWx,2013-04-12 15:41:00,
2013-04-12 11:46:00,42.0,40.0,29.88,NE,45,4.0,5.0,94,0.60,,,0.42,TxWx,2013-04-12 15:46:00,
2013-04-12 11:51:00,42.0,40.0,29.87,North,0,4.0,4.0,94,0.60,,,0.42,TxWx,2013-04-12 15:51:00,
2013-04-12 11:57:00,42.0,40.0,29.87,NNW,337,3.0,4.0,94,0.60,,,0.43,TxWx,2013-04-12 15:57:00,
2013-04-12 12:02:00,42.0,40.0,29.88,NNW,337,4.0,6.0,94,0.60,,,0.44,TxWx,2013-04-12 16:02:00,
2013-04-12 12:07:00,42.0,40.0,29.87,NNW,337,8.0,10.0,94,0.60,,,0.45,TxWx,2013-04-12 16:07:00,
2013-04-12 12:12:00,42.0,40.0,29.87,NNW,337,6.0,6.0,94,0.60,,,0.45,TxWx,2013-04-12 16:12:00,
2013-04-12 12:17:00,42.0,40.0,29.87,NE,45,3.0,3.0,94,0.60,,,0.45,TxWx,2013-04-12 16:17:00,
2013-04-12 12:22:00,42.0,40.0,29.86,NW,315,6.0,7.0,94,0.60,,,0.46,TxWx,2013-04-12 16:22:00,
2013-04-12 12:27:00,42.0,40.0,29.86,NNE,22,4.0,4.0,94,0.60,,,0.46,TxWx,2013-04-12 16:27:00,
2013-04-12 12:32:00,42.0,40.0,29.85,NNW,337,3.0,4.0,94,0.00,,,0.46,TxWx,2013-04-12 16:32:00,
2013-04-12 12:37:00,42.0,40.0,29.85,NNW,337,2.0,2.0,94,0.00,,,0.47,TxWx,2013-04-12 16:37:00,
2013-04-12 12:43:00,42.0,40.0,29.84,NW,315,1.0,2.0,94,0.60,,,0.47,TxWx,2013-04-12 16:43:00,
2013-04-12 12:48:00,42.0,40.0,29.85,NE,45,1.0,1.0,94,0.60,,,0.47,TxWx,2013-04-12 16:48:00,
2013-04-12 12:53:00,42.0,40.0,29.85,North,0,1.0,1.0,94,0.60,,,0.48,TxWx,2013-04-12 16:53:00,
2013-04-12 12:58:00,43.0,41.0,29.84,North,0,2.0,3.0,94,0.60,,,0.48,TxWx,2013-04-12 16:58:00,
2013-04-12 13:03:00,43.0,41.0,29.85,North,0,3.0,4.0,94,0.00,,,0.48,TxWx,2013-04-12 17:03:00,
2013-04-12 13:09:00,43.0,41.0,29.84,NE,45,1.0,1.0,94,0.00,,,0.48,TxWx,2013-04-12 17:09:00,
2013-04-12 13:14:00,43.0,41.0,29.84,NE,45,3.0,4.0,94,0.00,,,0.48,TxWx,2013-04-12 17:14:00,
2013-04-12 13:19:00,43.0,41.0,29.83,NE,45,3.0,3.0,94,0.00,,,0.48,TxWx,2013-04-12 17:19:00,
2013-04-12 13:24:00,43.0,41.0,29.83,ESE,112,1.0,2.0,94,0.00,,,0.48,TxWx,2013-04-12 17:24:00,
2013-04-12 13:30:00,43.0,41.0,29.83,SE,135,1.0,2.0,94,0.00,,,0.48,TxWx,2013-04-12 17:30:00,
2013-04-12 13:35:00,43.0,41.0,29.82,SE,135,1.0,1.0,94,0.00,,,0.48,TxWx,2013-04-12 17:35:00,
2013-04-12 13:40:00,43.0,41.0,29.81,SE,135,1.0,1.0,94,0.60,,,0.49,TxWx,2013-04-12 17:40:00,
2013-04-12 13:46:00,43.0,41.0,29.82,ESE,112,1.0,1.0,94,0.60,,,0.49,TxWx,2013-04-12 17:46:00,
2013-04-12 13:51:00,43.0,41.0,29.81,ENE,67,1.0,1.0,94,0.00,,,0.49,TxWx,2013-04-12 17:51:00,
2013-04-12 13:57:00,43.0,41.0,29.81,East,90,1.0,2.0,94,0.00,,,0.49,TxWx,2013-04-12 17:57:00,
2013-04-12 13:59:00,42.0,38.0,29.77,SSE,157,4.0,5.0,86,0.00,,,0.49,TxWx,2013-04-12 17:59:00,
2013-04-12 14:00:00,42.0,38.0,29.77,SSE,157,5.0,6.0,86,0.00,,,0.49,TxWx,2013-04-12 18:00:00,
2013-04-12 14:01:00,42.0,38.0,29.78,SE,135,5.0,5.0,86,0.00,,,0.49,TxWx,2013-04-12 18:01:00,
2013-04-12 14:02:00,43.0,41.0,29.81,ENE,67,1.0,1.0,94,0.00,,,0.49,TxWx,2013-04-12 18:02:00,
2013-04-12 14:03:00,42.0,38.0,29.78,South,180,3.0,4.0,86,0.00,,,0.49,TxWx,2013-04-12 18:03:00,
2013-04-12 14:04:00,42.0,38.0,29.78,South,180,2.0,3.0,86,0.00,,,0.49,TxWx,2013-04-12 18:04:00,
2013-04-12 14:05:00,42.0,38.0,29.78,SSE,157,3.0,3.0,86,0.00,,,0.49,TxWx,2013-04-12 18:05:00,
2013-04-12 14:06:00,42.0,38.0,29.78,SSE,157,4.0,5.0,86,0.00,,,0.49,TxWx,2013-04-12 18:06:00,
2013-04-12 14:07:00,43.0,41.0,29.81,ESE,112,3.0,3.0,94,0.00,,,0.49,TxWx,2013-04-12 18:07:00,
2013-04-12 14:08:00,42.0,38.0,29.79,SE,135,5.0,6.0,86,0.00,,,0.49,TxWx,2013-04-12 18:08:00,
2013-04-12 14:09:00,42.0,38.0,29.79,SSE,157,3.0,3.0,86,0.00,,,0.49,TxWx,2013-04-12 18:09:00,
2013-04-12 14:10:00,42.0,38.0,29.79,SSE,157,3.0,5.0,86,0.00,,,0.49,TxWx,2013-04-12 18:10:00,
2013-04-12 14:11:00,42.0,38.0,29.79,SSW,202,3.0,5.0,86,0.00,,,0.49,TxWx,2013-04-12 18:11:00,
2013-04-12 14:12:00,43.0,42.0,29.80,ESE,112,2.0,3.0,95,0.00,,,0.49,TxWx,2013-04-12 18:12:00,
2013-04-12 14:13:00,42.0,38.0,29.79,SE,135,3.0,3.0,86,0.00,,,0.49,TxWx,2013-04-12 18:13:00,
2013-04-12 14:14:00,42.0,38.0,29.79,SSE,157,3.0,4.0,86,0.00,,,0.49,TxWx,2013-04-12 18:14:00,
2013-04-12 14:15:00,42.0,38.0,29.79,SSE,157,3.0,3.0,86,0.00,,,0.49,TxWx,2013-04-12 18:15:00,
2013-04-12 14:16:00,42.0,38.0,29.79,SSE,157,4.0,4.0,87,0.00,,,0.49,TxWx,2013-04-12 18:16:00,
2013-04-12 14:17:00,43.0,41.0,29.80,ESE,112,1.0,1.0,94,0.00,,,0.49,TxWx,2013-04-12 18:17:00,
2013-04-12 14:18:00,42.0,38.0,29.78,SSE,157,4.0,4.0,87,0.00,,,0.49,TxWx,2013-04-12 18:18:00,
2013-04-12 14:19:00,42.0,38.0,29.78,SSE,157,4.0,4.0,87,0.00,,,0.49,TxWx,2013-04-12 18:19:00,
2013-04-12 14:20:00,42.0,38.0,29.78,South,180,3.0,3.0,87,0.60,,,0.50,TxWx,2013-04-12 18:20:00,
2013-04-12 14:21:00,42.0,38.0,29.78,SE,135,4.0,5.0,87,0.60,,,0.50,TxWx,2013-04-12 18:21:00,
2013-04-12 14:22:00,43.0,41.0,29.80,SE,135,3.0,3.0,94,0.00,,,0.49,TxWx,2013-04-12 18:22:00,
2013-04-12 14:23:00,42.0,38.0,29.78,SSW,202,3.0,3.0,87,0.60,,,0.50,TxWx,2013-04-12 18:23:00,
2013-04-12 14:24:00,42.0,38.0,29.78,SSE,157,3.0,5.0,87,0.60,,,0.50,TxWx,2013-04-12 18:24:00,
2013-04-12 14:25:00,42.0,38.0,29.78,SSE,157,3.0,4.0,87,0.60,,,0.50,TxWx,2013-04-12 18:25:00,
2013-04-12 14:26:00,42.0,38.0,29.77,South,180,6.0,6.0,87,0.60,,,0.50,TxWx,2013-04-12 18:26:00,
2013-04-12 14:27:00,42.0,38.0,29.77,South,180,4.0,6.0,87,0.60,,,0.50,TxWx,2013-04-12 18:27:00,
2013-04-12 14:28:00,43.0,41.0,29.80,East,90,2.0,2.0,94,0.00,,,0.49,TxWx,2013-04-12 18:28:00,
2013-04-12 14:29:00,42.0,38.0,29.77,South,180,5.0,7.0,87,0.60,,,0.50,TxWx,2013-04-12 18:29:00,
2013-04-12 14:30:00,42.0,38.0,29.77,South,180,7.0,8.0,87,0.00,,,0.50,TxWx,2013-04-12 18:30:00,
2013-04-12 14:31:00,42.0,38.0,29.77,SSE,157,5.0,5.0,87,0.00,,,0.50,TxWx,2013-04-12 18:31:00,
2013-04-12 14:32:00,42.0,38.0,29.77,ESE,112,4.0,5.0,87,0.00,,,0.50,TxWx,2013-04-12 18:32:00,
2013-04-12 14:33:00,42.0,39.0,29.76,South,180,6.0,7.0,88,0.00,,,0.50,TxWx,2013-04-12 18:33:00,
2013-04-12 14:34:00,42.0,39.0,29.76,SSW,202,7.0,7.0,88,0.00,,,0.51,TxWx,2013-04-12 18:34:00,
2013-04-12 14:35:00,42.0,39.0,29.76,South,180,6.0,8.0,88,0.00,,,0.51,TxWx,2013-04-12 18:35:00,
2013-04-12 14:42:00,42.0,39.0,29.76,SSE,157,4.0,6.0,88,0.60,,,0.51,TxWx,2013-04-12 18:42:00,
2013-04-12 14:43:00,42.0,39.0,29.76,NNW,337,3.0,5.0,88,0.60,,,0.52,TxWx,2013-04-12 18:43:00,
2013-04-12 14:44:00,42.0,39.0,29.76,South,180,6.0,6.0,88,0.60,,,0.52,TxWx,2013-04-12 18:44:00,
2013-04-12 14:46:00,41.0,38.0,29.76,South,180,6.0,10.0,88,0.60,,,0.52,TxWx,2013-04-12 18:46:00,
2013-04-12 14:47:00,41.0,38.0,29.76,SSE,157,4.0,7.0,88,0.60,,,0.52,TxWx,2013-04-12 18:47:00,
2013-04-12 14:48:00,41.0,39.0,29.76,SSW,202,3.0,4.0,88,0.60,,,0.52,TxWx,2013-04-12 18:48:00,
2013-04-12 14:49:00,41.0,38.0,29.76,SE,135,5.0,5.0,89,0.60,,,0.52,TxWx,2013-04-12 18:49:00,
2013-04-12 14:50:00,41.0,38.0,29.76,SE,135,5.0,6.0,89,0.60,,,0.52,TxWx,2013-04-12 18:50:00,
2013-04-12 14:51:00,41.0,38.0,29.76,SE,135,6.0,6.0,89,0.60,,,0.52,TxWx,2013-04-12 18:51:00,
2013-04-12 14:52:00,41.0,38.0,29.76,SE,135,4.0,6.0,89,0.60,,,0.52,TxWx,2013-04-12 18:52:00,
2013-04-12 16:00:00,44.0,42.0,29.75,South,180,0.0,1.0,94,0.00,,,0.49,TxWx,2013-04-12 20:00:00,
2013-04-12 16:06:00,44.0,43.0,29.75,NE,45,1.0,1.0,95,0.00,,,0.49,TxWx,2013-04-12 20:06:00,
2013-04-12 16:11:00,44.0,43.0,29.75,North,0,1.0,1.0,95,0.00,,,0.49,TxWx,2013-04-12 20:11:00,
2013-04-12 16:19:00,44.0,42.0,29.74,ENE,67,2.0,3.0,94,0.00,,,0.49,TxWx,2013-04-12 20:19:00,
2013-04-12 16:24:00,44.0,43.0,29.74,ENE,67,1.0,1.0,95,0.00,,,0.49,TxWx,2013-04-12 20:24:00,
2013-04-12 16:30:00,44.0,43.0,29.74,NE,45,2.0,2.0,95,0.00,,,0.49,TxWx,2013-04-12 20:30:00,
2013-04-12 16:35:00,44.0,43.0,29.74,NE,45,2.0,2.0,95,0.00,,,0.49,TxWx,2013-04-12 20:35:00,
2013-04-12 16:40:00,44.0,43.0,29.74,NNE,22,1.0,1.0,95,0.00,,,0.49,TxWx,2013-04-12 20:40:00,
2013-04-12 16:46:00,44.0,43.0,29.74,NNE,22,1.0,2.0,95,0.00,,,0.49,TxWx,2013-04-12 20:46:00,
2013-04-12 16:49:00,42.0,40.0,29.77,South,180,3.0,3.0,92,0.00,,,0.01,TxWx,2013-04-12 20:49:00,
2013-04-12 16:50:00,42.0,40.0,29.78,SSE,157,3.0,3.0,92,0.60,,,0.01,TxWx,2013-04-12 20:50:00,
2013-04-12 16:51:00,44.0,43.0,29.74,NNE,22,1.0,1.0,95,0.00,,,0.49,TxWx,2013-04-12 20:51:00,
2013-04-12 16:52:00,42.0,40.0,29.77,SSE,157,3.0,4.0,92,0.60,,,0.01,TxWx,2013-04-12 20:52:00,
2013-04-12 16:53:00,42.0,40.0,29.77,SE,135,3.0,3.0,92,0.60,,,0.01,TxWx,2013-04-12 20:53:00,
2013-04-12 16:54:00,42.0,40.0,29.77,South,180,3.0,4.0,92,0.60,,,0.01,TxWx,2013-04-12 20:54:00,
2013-04-12 16:55:00,41.0,39.0,29.77,South,180,5.0,6.0,92,0.60,,,0.01,TxWx,2013-04-12 20:55:00,
2013-04-12 16:56:00,44.0,43.0,29.74,NNE,22,1.0,1.0,95,0.00,,,0.49,TxWx,2013-04-12 20:56:00,
2013-04-12 16:57:00,41.0,39.0,29.77,SSE,157,3.0,5.0,92,0.60,,,0.01,TxWx,2013-04-12 20:57:00,
2013-04-12 16:58:00,41.0,39.0,29.77,SSE,157,3.0,3.0,92,0.60,,,0.01,TxWx,2013-04-12 20:58:00,
2013-04-12 16:59:00,41.0,39.0,29.77,South,180,3.0,4.0,92,0.60,,,0.01,TxWx,2013-04-12 20:59:00,
2013-04-12 17:00:00,41.0,39.0,29.77,SSE,157,4.0,4.0,92,0.00,,,0.01,TxWx,2013-04-12 21:00:00,
2013-04-12 17:01:00,44.0,43.0,29.74,North,0,1.0,1.0,95,0.00,,,0.49,TxWx,2013-04-12 21:01:00,
2013-04-12 17:02:00,41.0,39.0,29.77,South,180,3.0,3.0,92,0.00,,,0.01,TxWx,2013-04-12 21:02:00,
2013-04-12 17:06:00,44.0,43.0,29.74,East,90,1.0,1.0,95,0.00,,,0.49,TxWx,2013-04-12 21:06:00,
2013-04-12 17:11:00,44.0,43.0,29.74,SSE,157,0.0,1.0,95,0.00,,,0.49,TxWx,2013-04-12 21:11:00,
2013-04-12 17:17:00,44.0,43.0,29.74,East,90,2.0,2.0,95,0.00,,,0.49,TxWx,2013-04-12 21:17:00,
2013-04-12 17:22:00,44.0,43.0,29.74,ESE,112,1.0,2.0,95,0.00,,,0.49,TxWx,2013-04-12 21:22:00,
2013-04-12 17:27:00,44.0,43.0,29.74,East,90,1.0,1.0,95,0.00,,,0.49,TxWx,2013-04-12 21:27:00,
2013-04-12 17:32:00,44.0,43.0,29.74,SE,135,1.0,2.0,95,0.00,,,0.49,TxWx,2013-04-12 21:32:00,
2013-04-12 17:38:00,44.0,43.0,29.74,West,270,1.0,1.0,95,0.00,,,0.49,TxWx,2013-04-12 21:38:00,
2013-04-12 17:43:00,45.0,44.0,29.74,WSW,247,1.0,1.0,95,0.00,,,0.49,TxWx,2013-04-12 21:43:00,
2013-04-12 17:48:00,44.0,43.0,29.73,SSW,202,3.0,3.0,95,0.00,,,0.49,TxWx,2013-04-12 21:48:00,
2013-04-12 17:53:00,44.0,43.0,29.73,SW,225,2.0,3.0,95,0.00,,,0.49,TxWx,2013-04-12 21:53:00,
2013-04-12 17:59:00,44.0,43.0,29.73,SSE,157,1.0,1.0,95,0.00,,,0.49,TxWx,2013-04-12 21:59:00,
2013-04-12 18:04:00,45.0,44.0,29.73,East,90,0.0,1.0,95,0.00,,,0.49,TxWx,2013-04-12 22:04:00,
2013-04-12 18:09:00,45.0,44.0,29.73,SSW,202,1.0,2.0,95,0.00,,,0.49,TxWx,2013-04-12 22:09:00,
2013-04-12 18:14:00,45.0,44.0,29.74,East,90,1.0,1.0,95,0.00,,,0.49,TxWx,2013-04-12 22:14:00,
2013-04-12 18:19:00,45.0,44.0,29.74,East,90,0.0,1.0,95,0.00,,,0.49,TxWx,2013-04-12 22:19:00,
2013-04-12 18:24:00,45.0,44.0,29.74,NNE,22,2.0,2.0,95,0.00,,,0.49,TxWx,2013-04-12 22:24:00,
2013-04-12 18:30:00,45.0,44.0,29.74,WSW,247,2.0,2.0,95,0.00,,,0.49,TxWx,2013-04-12 22:30:00,
2013-04-12 18:35:00,44.0,43.0,29.74,WSW,247,1.0,2.0,95,0.00,,,0.49,TxWx,2013-04-12 22:35:00,
2013-04-12 18:40:00,44.0,43.0,29.74,SW,225,3.0,4.0,95,0.00,,,0.49,TxWx,2013-04-12 22:40:00,
2013-04-12 18:46:00,44.0,43.0,29.74,WSW,247,1.0,2.0,95,0.00,,,0.49,TxWx,2013-04-12 22:46:00,
2013-04-12 18:51:00,44.0,43.0,29.74,SSW,202,3.0,3.0,95,0.00,,,0.49,TxWx,2013-04-12 22:51:00,
2013-04-12 18:56:00,44.0,43.0,29.74,SW,225,2.0,3.0,95,0.00,,,0.49,TxWx,2013-04-12 22:56:00,
2013-04-12 19:01:00,44.0,43.0,29.74,SSW,202,1.0,2.0,95,0.00,,,0.49,TxWx,2013-04-12 23:01:00,
2013-04-12 19:06:00,44.0,43.0,29.74,SSW,202,3.0,3.0,95,0.00,,,0.49,TxWx,2013-04-12 23:06:00,
2013-04-12 19:12:00,44.0,43.0,29.73,South,180,3.0,3.0,95,0.00,,,0.49,TxWx,2013-04-12 23:12:00,
2013-04-12 19:17:00,44.0,43.0,29.73,SSW,202,3.0,3.0,95,0.00,,,0.49,TxWx,2013-04-12 23:17:00,
2013-04-12 19:22:00,44.0,43.0,29.72,SSW,202,3.0,3.0,95,0.00,,,0.49,TxWx,2013-04-12 23:22:00,
2013-04-12 19:27:00,44.0,43.0,29.72,South,180,5.0,6.0,95,0.00,,,0.49,TxWx,2013-04-12 23:27:00,
2013-04-12 19:32:00,44.0,43.0,29.72,SW,225,3.0,3.0,95,0.00,,,0.49,TxWx,2013-04-12 23:32:00,
2013-04-12 19:37:00,44.0,43.0,29.73,SSW,202,3.0,3.0,95,0.00,,,0.49,TxWx,2013-04-12 23:37:00,
2013-04-12 19:42:00,44.0,43.0,29.73,SW,225,3.0,3.0,95,0.00,,,0.49,TxWx,2013-04-12 23:42:00,
2013-04-12 19:48:00,44.0,43.0,29.72,SW,225,3.0,5.0,95,0.00,,,0.49,TxWx,2013-04-12 23:48:00,
2013-04-12 19:53:00,44.0,43.0,29.73,SSE,157,3.0,3.0,95,0.00,,,0.49,TxWx,2013-04-12 23:53:00,
2013-04-12 19:58:00,44.0,42.0,29.73,SSW,202,3.0,3.0,94,0.00,,,0.49,TxWx,2013-04-12 23:58:00,
2013-04-12 20:03:00,44.0,42.0,29.72,SSW,202,3.0,4.0,94,0.00,,,0.49,TxWx,2013-04-13 00:03:00,
2013-04-12 20:08:00,44.0,42.0,29.72,SW,225,4.0,5.0,94,0.00,,,0.49,TxWx,2013-04-13 00:08:00,
2013-04-12 20:13:00,44.0,42.0,29.72,South,180,3.0,5.0,94,0.00,,,0.49,TxWx,2013-04-13 00:13:00,
2013-04-12 20:18:00,44.0,42.0,29.72,SSW,202,3.0,4.0,94,0.00,,,0.49,TxWx,2013-04-13 00:18:00,
2013-04-12 20:23:00,44.0,42.0,29.72,WSW,247,2.0,2.0,94,0.00,,,0.49,TxWx,2013-04-13 00:23:00,
2013-04-12 20:29:00,44.0,42.0,29.72,SSW,202,2.0,3.0,94,0.00,,,0.49,TxWx,2013-04-13 00:29:00,
2013-04-12 20:34:00,43.0,41.0,29.72,SW,225,1.0,2.0,94,0.00,,,0.49,TxWx,2013-04-13 00:34:00,
2013-04-12 20:39:00,43.0,41.0,29.72,WSW,247,3.0,3.0,93,0.00,,,0.49,TxWx,2013-04-13 00:39:00,
2013-04-12 20:45:00,43.0,41.0,29.73,South,180,2.0,3.0,93,0.00,,,0.49,TxWx,2013-04-13 00:45:00,
2013-04-12 20:50:00,44.0,42.0,29.73,SSW,202,2.0,3.0,93,0.00,,,0.49,TxWx,2013-04-13 00:50:00,
2013-04-12 20:55:00,44.0,42.0,29.72,SSW,202,4.0,4.0,93,0.00,,,0.49,TxWx,2013-04-13 00:55:00,
2013-04-12 21:00:00,44.0,41.0,29.73,South,180,2.0,3.0,92,0.00,,,0.49,TxWx,2013-04-13 01:00:00,
2013-04-12 21:05:00,44.0,42.0,29.73,West,270,1.0,2.0,92,0.00,,,0.49,TxWx,2013-04-13 01:05:00,
2013-04-12 21:10:00,43.0,41.0,29.74,SSW,202,3.0,3.0,92,0.00,,,0.49,TxWx,2013-04-13 01:10:00,
2013-04-12 21:16:00,43.0,41.0,29.74,South,180,4.0,5.0,91,0.00,,,0.49,TxWx,2013-04-13 01:16:00,
2013-04-12 21:21:00,43.0,40.0,29.74,East,90,2.0,3.0,91,0.00,,,0.49,TxWx,2013-04-13 01:21:00,
2013-04-12 21:26:00,43.0,40.0,29.74,SSE,157,3.0,5.0,91,0.00,,,0.49,TxWx,2013-04-13 01:26:00,
2013-04-12 21:32:00,43.0,40.0,29.74,South,180,5.0,5.0,90,0.00,,,0.49,TxWx,2013-04-13 01:32:00,
2013-04-12 21:37:00,43.0,40.0,29.74,SSE,157,4.0,5.0,90,0.00,,,0.49,TxWx,2013-04-13 01:37:00,
2013-04-12 21:43:00,43.0,40.0,29.74,SSW,202,5.0,5.0,90,0.00,,,0.49,TxWx,2013-04-13 01:43:00,
2013-04-12 21:48:00,43.0,40.0,29.74,South,180,3.0,3.0,90,0.00,,,0.49,TxWx,2013-04-13 01:48:00,
2013-04-12 21:53:00,43.0,40.0,29.74,South,180,5.0,5.0,90,0.00,,,0.49,TxWx,2013-04-13 01:53:00,
2013-04-12 21:58:00,43.0,40.0,29.75,SSE,157,1.0,2.0,90,0.00,,,0.49,TxWx,2013-04-13 01:58:00,
2013-04-12 22:04:00,43.0,40.0,29.74,South,180,3.0,3.0,89,0.00,,,0.49,TxWx,2013-04-13 02:04:00,
2013-04-12 22:09:00,43.0,40.0,29.74,South,180,1.0,3.0,89,0.00,,,0.49,TxWx,2013-04-13 02:09:00,
2013-04-12 22:15:00,43.0,40.0,29.74,SSE,157,3.0,4.0,89,0.00,,,0.49,TxWx,2013-04-13 02:15:00,
2013-04-12 22:20:00,43.0,40.0,29.74,SSE,157,3.0,5.0,89,0.00,,,0.49,TxWx,2013-04-13 02:20:00,
2013-04-12 22:25:00,43.0,40.0,29.73,ESE,112,5.0,5.0,89,0.00,,,0.49,TxWx,2013-04-13 02:25:00,
2013-04-12 22:30:00,43.0,40.0,29.74,South,180,5.0,7.0,89,0.00,,,0.49,TxWx,2013-04-13 02:30:00,
2013-04-12 22:35:00,43.0,40.0,29.74,South,180,4.0,6.0,89,0.00,,,0.49,TxWx,2013-04-13 02:35:00,
2013-04-12 22:41:00,43.0,40.0,29.73,SSW,202,5.0,6.0,89,0.00,,,0.49,TxWx,2013-04-13 02:41:00,
2013-04-12 22:46:00,43.0,40.0,29.74,SSE,157,3.0,6.0,88,0.00,,,0.49,TxWx,2013-04-13 02:46:00,
2013-04-12 22:51:00,43.0,40.0,29.75,SSE,157,1.0,1.0,88,0.00,,,0.49,TxWx,2013-04-13 02:51:00,
2013-04-12 22:56:00,43.0,40.0,29.75,SSE,157,4.0,5.0,88,0.00,,,0.49,TxWx,2013-04-13 02:56:00,
2013-04-12 23:01:00,43.0,40.0,29.76,SE,135,4.0,5.0,88,0.00,,,0.49,TxWx,2013-04-13 03:01:00,
2013-04-12 23:07:00,43.0,40.0,29.75,SE,135,3.0,4.0,88,0.00,,,0.49,TxWx,2013-04-13 03:07:00,
2013-04-12 23:12:00,43.0,40.0,29.75,ESE,112,4.0,4.0,88,0.00,,,0.49,TxWx,2013-04-13 03:12:00,
2013-04-12 23:17:00,43.0,40.0,29.75,South,180,6.0,7.0,88,0.00,,,0.49,TxWx,2013-04-13 03:17:00,
2013-04-12 23:22:00,43.0,39.0,29.75,SSE,157,7.0,8.0,87,0.00,,,0.49,TxWx,2013-04-13 03:22:00,
2013-04-12 23:27:00,43.0,39.0,29.74,SW,225,5.0,5.0,87,0.00,,,0.49,TxWx,2013-04-13 03:27:00,
2013-04-12 23:33:00,43.0,39.0,29.75,SE,135,6.0,8.0,87,0.00,,,0.49,TxWx,2013-04-13 03:33:00,
2013-04-12 23:38:00,43.0,39.0,29.76,SE,135,3.0,4.0,87,0.00,,,0.49,TxWx,2013-04-13 03:38:00,
2013-04-12 23:43:00,43.0,39.0,29.76,South,180,5.0,5.0,87,0.00,,,0.49,TxWx,2013-04-13 03:43:00,
2013-04-12 23:48:00,43.0,39.0,29.76,SE,135,6.0,7.0,86,0.00,,,0.49,TxWx,2013-04-13 03:48:00,
2013-04-12 23:53:00,43.0,39.0,29.76,SSE,157,5.0,6.0,86,0.00,,,0.49,TxWx,2013-04-13 03:53:00,
2013-04-12 23:58:00,42.0,38.0,29.76,South,180,4.0,5.0,86,0.00,,,0.49,TxWx,2013-04-13 03:58:00,